Time;durP1;ratioP1;P1;durP2;ratioP2;P2;SDS_P1;SDS_P2;PMS_P1;PMS_P2;Temp;Humidity;BMP_temperature;BMP_pressure;BME280_temperature;BME280_humidity;BME280_pressure;Samples;Min_cycle;Max_cycle;Signal;HPM_P1;HPM_P2
2022/03/26 00:01:50;;;;;;;36.05;17.17;;;;;;;-147.05;100.00;58721.66;5092680;28;20048;-68
2022/03/26 00:04:18;;;;;;;34.58;17.98;;;;;;;-147.05;100.00;58721.66;5088754;28;20056;-67
2022/03/26 00:06:45;;;;;;;34.13;18.25;;;;;;;-147.05;100.00;58721.66;5093810;28;20059;-68
2022/03/26 00:09:12;;;;;;;38.17;17.98;;;;;;;-147.05;100.00;58721.66;5097278;28;20059;-68
2022/03/26 00:11:39;;;;;;;34.08;18.00;;;;;;;-147.05;100.00;58721.66;5089050;28;20043;-69
2022/03/26 00:14:07;;;;;;;33.20;17.92;;;;;;;-147.05;100.00;58721.66;5087287;28;20047;-68
2022/03/26 00:16:34;;;;;;;33.15;16.67;;;;;;;-147.05;100.00;58721.66;5084411;28;20043;-67
2022/03/26 00:19:02;;;;;;;31.05;18.17;;;;;;;-147.05;100.00;58721.66;5096758;28;20765;-68
2022/03/26 00:21:29;;;;;;;35.40;19.05;;;;;;;-147.05;100.00;58721.66;5096436;28;20094;-69
2022/03/26 00:23:56;;;;;;;40.45;18.17;;;;;;;-147.05;100.00;58721.66;5090205;28;20196;-68
2022/03/26 00:26:23;;;;;;;40.80;19.58;;;;;;;-147.05;100.00;58721.66;5089459;28;20052;-68
2022/03/26 00:28:50;;;;;;;39.83;17.80;;;;;;;-147.05;100.00;58721.66;5094977;28;20048;-67
2022/03/26 00:31:17;;;;;;;33.83;17.90;;;;;;;-147.05;100.00;58721.66;5100006;28;20064;-68
2022/03/26 00:33:44;;;;;;;34.50;19.42;;;;;;;-147.05;100.00;58721.66;5096484;28;20251;-68
2022/03/26 00:36:12;;;;;;;37.17;18.95;;;;;;;-147.05;100.00;58721.66;5093394;28;20036;-68
2022/03/26 00:38:39;;;;;;;32.83;17.75;;;;;;;-147.05;100.00;58721.66;5094851;28;20043;-67
2022/03/26 00:41:06;;;;;;;31.88;17.15;;;;;;;-147.05;100.00;58721.66;5092148;28;20525;-68
2022/03/26 00:43:33;;;;;;;38.05;18.85;;;;;;;-147.05;100.00;58721.66;5098517;28;20090;-68
2022/03/26 00:46:00;;;;;;;40.50;18.95;;;;;;;-147.05;100.00;58721.66;5090797;28;20043;-67
2022/03/26 00:48:27;;;;;;;36.92;17.88;;;;;;;-147.05;100.00;58721.66;5097946;28;20056;-69
2022/03/26 00:50:55;;;;;;;36.40;18.17;;;;;;;-147.05;100.00;58721.66;5096792;28;20120;-68
2022/03/26 00:53:22;;;;;;;37.95;19.13;;;;;;;-147.05;100.00;58721.66;5096609;28;20514;-67
2022/03/26 00:55:48;;;;;;;34.58;19.02;;;;;;;-147.05;100.00;58721.66;5100306;28;20043;-67
2022/03/26 00:58:15;;;;;;;37.22;18.98;;;;;;;-147.05;100.00;58721.66;5093315;28;20144;-69
2022/03/26 01:00:42;;;;;;;32.25;18.33;;;;;;;-147.05;100.00;58721.66;5088652;28;20045;-66
2022/03/26 01:03:10;;;;;;;38.03;18.73;;;;;;;-147.05;100.00;58721.66;5099058;28;20041;-67
2022/03/26 01:05:38;;;;;;;36.92;18.92;;;;;;;-147.05;100.00;58721.66;5101097;28;20041;-68
2022/03/26 01:08:05;;;;;;;38.35;18.77;;;;;;;-147.05;100.00;58721.66;5097096;28;20162;-66
2022/03/26 01:10:32;;;;;;;34.60;18.02;;;;;;;-147.05;100.00;58721.66;5101714;28;20072;-66
2022/03/26 01:13:00;;;;;;;35.50;18.75;;;;;;;-147.05;100.00;58721.66;5100165;28;20037;-66
2022/03/26 01:15:27;;;;;;;38.47;18.85;;;;;;;-147.05;100.00;58721.66;5099210;28;20048;-66
2022/03/26 01:17:55;;;;;;;38.55;18.00;;;;;;;-147.05;100.00;58721.66;5091104;28;20037;-65
2022/03/26 01:20:22;;;;;;;35.40;18.80;;;;;;;-147.05;100.00;58721.66;5099830;28;20052;-68
2022/03/26 01:22:56;;;;;;;38.05;17.90;;;;;;;-147.05;100.00;58721.66;5100564;28;20760;-69
2022/03/26 01:25:24;;;;;;;40.63;19.00;;;;;;;-147.05;100.00;58721.66;5101612;28;20052;-68
2022/03/26 01:27:52;;;;;;;36.75;18.95;;;;;;;-147.05;100.00;58721.66;5094721;28;20040;-68
2022/03/26 01:30:19;;;;;;;33.75;17.75;;;;;;;-147.05;100.00;58721.66;5086320;28;20053;-68
2022/03/26 01:32:46;;;;;;;34.33;18.35;;;;;;;-147.05;100.00;58721.66;5092142;28;20072;-68
2022/03/26 01:35:14;;;;;;;38.72;18.33;;;;;;;-147.05;100.00;58721.66;5101129;28;20036;-68
2022/03/26 01:37:41;;;;;;;37.90;18.90;;;;;;;-147.05;100.00;58721.66;5098201;28;20044;-68
2022/03/26 01:40:14;;;;;;;41.35;18.35;;;;;;;-147.05;100.00;58721.66;5099697;28;20036;-67
2022/03/26 01:42:41;;;;;;;39.42;18.70;;;;;;;-147.05;100.00;58721.66;5097793;28;20037;-66
2022/03/26 01:45:14;;;;;;;34.90;18.20;;;;;;;-147.05;100.00;58721.66;5085430;28;20524;-66
2022/03/26 01:47:41;;;;;;;35.63;18.65;;;;;;;-147.05;100.00;58721.66;5090558;28;20041;-68
2022/03/26 01:50:09;;;;;;;36.22;19.15;;;;;;;-147.05;100.00;58721.66;5096591;28;20039;-68
2022/03/26 01:52:36;;;;;;;36.13;18.00;;;;;;;-147.05;100.00;58721.66;5090449;28;20068;-68
2022/03/26 01:55:04;;;;;;;37.55;19.23;;;;;;;-147.05;100.00;58721.66;5094514;28;20889;-70
2022/03/26 01:57:32;;;;;;;40.38;18.60;;;;;;;-147.05;100.00;58721.66;5084608;28;20094;-69
2022/03/26 02:00:00;;;;;;;36.58;18.67;;;;;;;-147.05;100.00;58721.66;5086193;28;20045;-68
2022/03/26 02:02:27;;;;;;;36.80;19.50;;;;;;;-147.05;100.00;58721.66;5099942;28;20044;-69
2022/03/26 02:04:54;;;;;;;41.67;19.38;;;;;;;-147.05;100.00;58721.66;5093895;28;20047;-67
2022/03/26 02:07:22;;;;;;;39.97;19.17;;;;;;;-147.05;100.00;58721.66;5099259;28;20573;-67
2022/03/26 02:09:49;;;;;;;31.63;18.63;;;;;;;-147.05;100.00;58721.66;5091034;28;20052;-66
2022/03/26 02:12:27;;;;;;;38.22;18.67;;;;;;;-147.05;100.00;58721.66;5100075;28;20063;-66
2022/03/26 02:14:56;;;;;;;34.97;18.65;;;;;;;-147.05;100.00;58721.66;5088526;28;20052;-66
2022/03/26 02:17:24;;;;;;;42.90;19.67;;;;;;;-147.05;100.00;58721.66;5089301;28;20036;-66
2022/03/26 02:19:58;;;;;;;38.35;18.30;;;;;;;-147.05;100.00;58721.66;5094380;28;20045;-68
2022/03/26 02:22:27;;;;;;;36.20;17.92;;;;;;;-147.05;100.00;58721.66;5087657;28;20062;-66
2022/03/26 02:24:54;;;;;;;33.53;18.48;;;;;;;-147.05;100.00;58721.66;5093716;28;20582;-68
2022/03/26 02:27:23;;;;;;;36.63;18.90;;;;;;;-147.05;100.00;58721.66;5098556;28;20510;-67
2022/03/26 02:29:51;;;;;;;40.10;19.50;;;;;;;-147.05;100.00;58721.66;5086008;28;20057;-66
2022/03/26 02:32:22;;;;;;;39.80;19.45;;;;;;;-147.05;100.00;58721.66;5091813;28;20048;-66
2022/03/26 02:34:50;;;;;;;35.58;18.85;;;;;;;-147.05;100.00;58721.66;5085483;28;20063;-67
2022/03/26 02:37:29;;;;;;;38.42;19.00;;;;;;;-147.05;100.00;58721.66;5087893;28;20502;-66
2022/03/26 02:39:56;;;;;;;41.72;18.52;;;;;;;-147.05;100.00;58721.66;5087830;28;20037;-67
2022/03/26 02:42:23;;;;;;;36.85;18.65;;;;;;;-147.05;100.00;58721.66;5091282;28;20047;-67
2022/03/26 02:44:50;;;;;;;35.78;18.67;;;;;;;-147.05;100.00;58721.66;5091720;28;20049;-67
2022/03/26 02:47:17;;;;;;;35.70;18.83;;;;;;;-147.05;100.00;58721.66;5088093;28;20049;-67
2022/03/26 02:49:44;;;;;;;40.95;18.45;;;;;;;-147.05;100.00;58721.66;5083164;28;20959;-66
2022/03/26 02:52:11;;;;;;;36.70;17.58;;;;;;;-147.05;100.00;58721.66;5089147;28;20045;-66
2022/03/26 02:54:38;;;;;;;37.00;18.65;;;;;;;-147.05;100.00;58721.66;5083758;28;20111;-67
2022/03/26 02:57:05;;;;;;;37.30;19.27;;;;;;;-147.05;100.00;58721.66;5095919;28;20122;-67
2022/03/26 02:59:32;;;;;;;35.47;18.88;;;;;;;-147.05;100.00;58721.66;5099033;28;20037;-68
2022/03/26 03:01:59;;;;;;;32.70;17.10;;;;;;;-147.05;100.00;58721.66;5091028;28;20438;-67
2022/03/26 03:04:26;;;;;;;35.28;18.35;;;;;;;-147.05;100.00;58721.66;5089408;28;20041;-68
2022/03/26 03:06:54;;;;;;;35.40;19.38;;;;;;;-147.05;100.00;58721.66;5087503;28;20037;-68
2022/03/26 03:09:21;;;;;;;37.63;19.10;;;;;;;-147.05;100.00;58721.66;5098662;28;20560;-67
2022/03/26 03:11:48;;;;;;;37.67;18.70;;;;;;;-147.05;100.00;58721.66;5098097;28;20079;-67
2022/03/26 03:14:16;;;;;;;32.95;18.90;;;;;;;-147.05;100.00;58721.66;5084690;28;20040;-67
2022/03/26 03:16:43;;;;;;;39.13;19.35;;;;;;;-147.05;100.00;58721.66;5092283;28;20076;-68
2022/03/26 03:19:10;;;;;;;45.35;18.75;;;;;;;-147.05;100.00;58721.66;5093599;28;20075;-68
2022/03/26 03:21:37;;;;;;;35.25;18.20;;;;;;;-147.05;100.00;58721.66;5089617;28;20131;-68
2022/03/26 03:24:04;;;;;;;41.65;18.25;;;;;;;-147.05;100.00;58721.66;5085917;28;20587;-68
2022/03/26 03:26:31;;;;;;;35.72;17.90;;;;;;;-147.05;100.00;58721.66;5087450;28;20092;-68
2022/03/26 03:28:59;;;;;;;39.53;19.02;;;;;;;-147.05;100.00;58721.66;5092562;28;20036;-67
2022/03/26 03:31:28;;;;;;;35.30;16.70;;;;;;;-147.05;100.00;58721.66;5089557;28;20056;-67
2022/03/26 03:33:56;;;;;;;32.03;16.10;;;;;;;-147.05;100.00;58721.66;5087287;28;20717;-67
2022/03/26 03:36:23;;;;;;;35.72;18.05;;;;;;;-147.05;100.00;58721.66;5095896;28;20036;-67
2022/03/26 03:38:50;;;;;;;35.28;17.80;;;;;;;-147.05;100.00;58721.66;5084822;28;20742;-68
2022/03/26 03:41:17;;;;;;;35.75;17.00;;;;;;;-147.05;100.00;58721.66;5091847;28;20040;-70
2022/03/26 03:43:44;;;;;;;33.90;17.42;;;;;;;-147.05;100.00;58721.66;5098179;28;20753;-68
2022/03/26 03:46:12;;;;;;;33.50;17.27;;;;;;;-147.05;100.00;58721.66;5087255;28;20048;-69
2022/03/26 03:48:40;;;;;;;36.67;17.35;;;;;;;-147.05;100.00;58721.66;5083806;28;20119;-69
2022/03/26 03:51:07;;;;;;;32.42;17.25;;;;;;;-147.05;100.00;58721.66;5086471;28;20040;-67
2022/03/26 03:53:35;;;;;;;34.22;17.70;;;;;;;-147.05;100.00;58721.66;5090143;28;20036;-66
2022/03/26 03:56:02;;;;;;;39.78;18.92;;;;;;;-147.05;100.00;58721.66;5083102;28;20037;-67
2022/03/26 03:58:29;;;;;;;32.65;17.25;;;;;;;-147.05;100.00;58721.66;5083536;28;20117;-67
2022/03/26 04:01:03;;;;;;;37.20;16.95;;;;;;;-147.05;100.00;58721.66;5083228;28;20049;-68
2022/03/26 04:03:31;;;;;;;34.42;17.70;;;;;;;-147.05;100.00;58721.66;5089961;28;20048;-68
2022/03/26 04:06:01;;;;;;;37.20;17.52;;;;;;;-147.05;100.00;58721.66;5091059;28;20789;-67
2022/03/26 04:08:28;;;;;;;43.20;19.48;;;;;;;-147.05;100.00;58721.66;5097648;28;20041;-67
2022/03/26 04:10:55;;;;;;;36.33;17.75;;;;;;;-147.05;100.00;58721.66;5092609;28;20076;-67
2022/03/26 04:13:23;;;;;;;41.50;18.05;;;;;;;-147.05;100.00;58721.66;5102344;28;20068;-68
2022/03/26 04:15:51;;;;;;;36.45;17.60;;;;;;;-147.05;100.00;58721.66;5101439;28;20127;-68
2022/03/26 04:18:18;;;;;;;38.10;18.13;;;;;;;-147.05;100.00;58721.66;5094222;28;20827;-68
2022/03/26 04:20:45;;;;;;;37.60;18.30;;;;;;;-147.05;100.00;58721.66;5099581;28;20037;-67
2022/03/26 04:23:12;;;;;;;45.80;18.55;;;;;;;-147.05;100.00;58721.66;5103761;28;20044;-66
2022/03/26 04:25:39;;;;;;;36.08;17.58;;;;;;;-147.05;100.00;58721.66;5095402;28;20065;-66
2022/03/26 04:28:06;;;;;;;39.38;17.98;;;;;;;-147.05;100.00;58721.66;5102632;28;20073;-68
2022/03/26 04:30:33;;;;;;;35.42;17.70;;;;;;;-147.05;100.00;58721.66;5097909;28;20076;-66
2022/03/26 04:33:00;;;;;;;38.45;17.67;;;;;;;-147.05;100.00;58721.66;5091062;28;20526;-67
2022/03/26 04:35:27;;;;;;;33.80;17.50;;;;;;;-147.05;100.00;58721.66;5095599;28;20040;-67
2022/03/26 04:37:56;;;;;;;35.47;17.65;;;;;;;-147.05;100.00;58721.66;5093384;28;20020;-66
2022/03/26 04:40:24;;;;;;;39.25;17.83;;;;;;;-147.05;100.00;58721.66;5094847;28;20040;-66
2022/03/26 04:42:51;;;;;;;38.80;17.83;;;;;;;-147.05;100.00;58721.66;5101925;28;20088;-67
2022/03/26 04:45:18;;;;;;;35.83;16.58;;;;;;;-147.05;100.00;58721.66;5099322;28;20051;-66
2022/03/26 04:47:45;;;;;;;35.17;16.80;;;;;;;-147.05;100.00;58721.66;5100395;28;20051;-66
2022/03/26 04:50:12;;;;;;;35.25;17.60;;;;;;;-147.05;100.00;58721.66;5100233;28;20075;-68
2022/03/26 04:52:39;;;;;;;35.58;17.05;;;;;;;-147.05;100.00;58721.66;5099124;28;20110;-67
2022/03/26 04:55:08;;;;;;;38.28;16.95;;;;;;;-147.05;100.00;58721.66;5103457;28;20049;-67
2022/03/26 04:57:47;;;;;;;37.03;17.45;;;;;;;-147.05;100.00;58721.66;5098189;28;20537;-68
2022/03/26 05:00:16;;;;;;;35.80;16.85;;;;;;;-147.05;100.00;58721.66;5102966;28;20037;-67
2022/03/26 05:02:44;;;;;;;33.65;16.63;;;;;;;-147.05;100.00;58721.66;5100812;28;20502;-67
2022/03/26 05:05:12;;;;;;;39.13;16.33;;;;;;;-147.05;100.00;58721.66;5094692;28;20509;-67
2022/03/26 05:07:46;;;;;;;41.92;18.13;;;;;;;-147.05;100.00;58721.66;5102004;28;20052;-67
2022/03/26 05:10:18;;;;;;;38.85;18.05;;;;;;;-147.05;100.00;58721.66;5102219;28;20087;-67
2022/03/26 05:12:47;;;;;;;35.03;17.00;;;;;;;-147.05;100.00;58721.66;5103791;28;20187;-67
2022/03/26 05:15:16;;;;;;;33.90;17.20;;;;;;;-147.05;100.00;58721.66;5098121;28;20044;-66
2022/03/26 05:17:51;;;;;;;41.10;18.13;;;;;;;-147.05;100.00;58721.66;5089657;28;20052;-68
2022/03/26 05:20:18;;;;;;;38.80;17.90;;;;;;;-147.05;100.00;58721.66;5102989;28;20517;-67
2022/03/26 05:22:47;;;;;;;35.05;16.40;;;;;;;-147.05;100.00;58721.66;5095363;28;20041;-67
2022/03/26 05:25:16;;;;;;;37.85;17.40;;;;;;;-147.05;100.00;58721.66;5096968;28;20036;-67
2022/03/26 05:27:48;;;;;;;45.95;17.95;;;;;;;-147.05;100.00;58721.66;5093386;28;20051;-69
2022/03/26 05:30:16;;;;;;;41.95;18.38;;;;;;;-147.05;100.00;58721.66;5093469;28;20056;-69
2022/03/26 05:32:43;;;;;;;38.38;18.08;;;;;;;-147.05;100.00;58721.66;5098773;28;20062;-69
2022/03/26 05:35:13;;;;;;;42.47;18.17;;;;;;;-147.05;100.00;58721.66;5097699;28;20734;-68
2022/03/26 05:37:42;;;;;;;40.60;17.92;;;;;;;-147.05;100.00;58721.66;5097098;28;20090;-68
2022/03/26 05:40:11;;;;;;;37.55;17.95;;;;;;;-147.05;100.00;58721.66;5090188;28;20078;-69
2022/03/26 05:42:38;;;;;;;42.55;18.90;;;;;;;-147.05;100.00;58721.66;5092700;28;20524;-68
2022/03/26 05:45:06;;;;;;;38.58;18.65;;;;;;;-147.05;100.00;58721.66;5093960;28;20083;-68
2022/03/26 05:47:37;;;;;;;38.10;19.08;;;;;;;-147.05;100.00;58721.66;5097657;28;20052;-68
2022/03/26 05:50:07;;;;;;;41.50;17.98;;;;;;;-147.05;100.00;58721.66;5084358;28;20115;-68
2022/03/26 05:52:34;;;;;;;39.55;18.33;;;;;;;-147.05;100.00;58721.66;5084100;28;20049;-67
2022/03/26 05:55:03;;;;;;;40.80;18.20;;;;;;;-147.05;100.00;58721.66;5095783;28;20041;-68
2022/03/26 05:57:30;;;;;;;36.40;19.08;;;;;;;-147.05;100.00;58721.66;5084223;28;20120;-67
2022/03/26 05:59:57;;;;;;;37.70;18.60;;;;;;;-147.05;100.00;58721.66;5094192;28;20044;-67
2022/03/26 06:02:24;;;;;;;40.63;18.98;;;;;;;-147.05;100.00;58721.66;5093244;28;20053;-68
2022/03/26 06:04:52;;;;;;;40.50;18.98;;;;;;;-147.05;100.00;58721.66;5095344;28;20044;-66
2022/03/26 06:07:19;;;;;;;43.00;19.02;;;;;;;-147.05;100.00;58721.66;5096443;28;20103;-68
2022/03/26 06:09:46;;;;;;;38.75;18.92;;;;;;;-147.05;100.00;58721.66;5093963;28;20044;-66
2022/03/26 06:12:13;;;;;;;41.58;19.83;;;;;;;-147.05;100.00;58721.66;5098538;28;20494;-65
2022/03/26 06:14:41;;;;;;;43.15;19.52;;;;;;;-147.05;100.00;58721.66;5093618;28;20128;-67
2022/03/26 06:17:08;;;;;;;42.42;20.02;;;;;;;-147.05;100.00;58721.66;5089626;28;20037;-67
2022/03/26 06:19:36;;;;;;;46.97;21.17;;;;;;;-147.05;100.00;58721.66;5098393;28;20098;-66
2022/03/26 06:22:04;;;;;;;44.90;19.98;;;;;;;-147.05;100.00;58721.66;5095017;28;20615;-67
2022/03/26 06:24:31;;;;;;;38.15;19.13;;;;;;;-147.05;100.00;58721.66;5098502;28;20037;-66
2022/03/26 06:26:58;;;;;;;44.05;19.75;;;;;;;-147.05;100.00;58721.66;5091228;28;20041;-67
2022/03/26 06:29:26;;;;;;;42.92;20.70;;;;;;;-147.05;100.00;58721.66;5097181;28;20039;-68
2022/03/26 06:31:53;;;;;;;45.60;20.15;;;;;;;-147.05;100.00;58721.66;5098217;28;20037;-70
2022/03/26 06:34:23;;;;;;;37.72;19.10;;;;;;;-147.05;100.00;58721.66;5098013;28;20348;-69
2022/03/26 06:36:51;;;;;;;39.50;19.17;;;;;;;-147.05;100.00;58721.66;5096616;28;20132;-68
2022/03/26 06:39:18;;;;;;;38.70;18.67;;;;;;;-147.05;100.00;58721.66;5096090;28;20032;-68
2022/03/26 06:41:45;;;;;;;38.83;16.70;;;;;;;-147.05;100.00;58721.66;5093429;28;20102;-67
2022/03/26 06:44:12;;;;;;;37.03;16.10;;;;;;;-147.05;100.00;58721.66;5095327;28;20045;-67
2022/03/26 06:46:40;;;;;;;37.50;18.30;;;;;;;-147.05;100.00;58721.66;5094357;28;20200;-66
2022/03/26 06:49:08;;;;;;;38.33;19.98;;;;;;;-147.05;100.00;58721.66;5088078;28;20087;-66
2022/03/26 06:51:37;;;;;;;39.00;19.63;;;;;;;-147.05;100.00;58721.66;5094903;28;20045;-67
2022/03/26 06:54:05;;;;;;;39.08;18.75;;;;;;;-147.05;100.00;58721.66;5094297;28;20128;-66
2022/03/26 06:56:33;;;;;;;38.60;20.33;;;;;;;-147.05;100.00;58721.66;5092009;28;20044;-66
2022/03/26 06:59:01;;;;;;;44.28;19.90;;;;;;;-147.05;100.00;58721.66;5083402;28;20034;-66
2022/03/26 07:01:31;;;;;;;40.88;19.63;;;;;;;-147.05;100.00;58721.66;5076252;28;20037;-65
2022/03/26 07:04:02;;;;;;;42.67;20.27;;;;;;;-147.05;100.00;58721.66;5091802;28;20060;-64
2022/03/26 07:06:29;;;;;;;36.58;19.42;;;;;;;-147.05;100.00;58721.66;5094783;28;20049;-65
2022/03/26 07:08:57;;;;;;;38.45;18.70;;;;;;;-147.05;100.00;58721.66;5094567;28;20839;-65
2022/03/26 07:11:49;;;;;;;40.63;20.55;;;;;;;-147.05;100.00;58721.66;5092496;28;20040;-64
2022/03/26 07:14:17;;;;;;;37.88;19.05;;;;;;;-147.05;100.00;58721.66;5088597;28;20079;-65
2022/03/26 07:16:44;;;;;;;42.08;20.27;;;;;;;-147.05;100.00;58721.66;5087077;28;20588;-65
2022/03/26 07:19:11;;;;;;;40.85;19.40;;;;;;;-147.05;100.00;58721.66;5076549;28;20155;-65
2022/03/26 07:21:39;;;;;;;37.65;19.30;;;;;;;-147.05;100.00;58721.66;5095087;28;20044;-66
2022/03/26 07:24:06;;;;;;;39.75;20.08;;;;;;;-147.05;100.00;58721.66;5095845;28;20044;-65
2022/03/26 07:26:33;;;;;;;37.40;19.15;;;;;;;-147.05;100.00;58721.66;5093209;28;20431;-65
2022/03/26 07:29:04;;;;;;;36.80;19.52;;;;;;;-147.05;100.00;58721.66;5090185;28;20045;-65
2022/03/26 07:31:33;;;;;;;36.67;17.98;;;;;;;-147.05;100.00;58721.66;5093243;28;20061;-65
2022/03/26 07:34:00;;;;;;;36.83;18.80;;;;;;;-147.05;100.00;58721.66;5092308;28;20032;-65
2022/03/26 07:36:27;;;;;;;35.70;18.05;;;;;;;-147.05;100.00;58721.66;5083493;28;20086;-65
2022/03/26 07:38:54;;;;;;;36.45;18.08;;;;;;;-147.05;100.00;58721.66;5088818;28;20482;-66
2022/03/26 07:41:21;;;;;;;34.63;18.58;;;;;;;-147.05;100.00;58721.66;5092583;28;20037;-63
2022/03/26 07:43:49;;;;;;;37.53;18.38;;;;;;;-147.05;100.00;58721.66;5087918;28;20045;-65
2022/03/26 07:46:18;;;;;;;39.15;18.25;;;;;;;-147.05;100.00;58721.66;5095000;28;20082;-65
2022/03/26 07:48:45;;;;;;;39.15;18.42;;;;;;;-147.05;100.00;58721.66;5079673;28;20049;-65
2022/03/26 07:51:12;;;;;;;36.33;18.88;;;;;;;-147.05;100.00;58721.66;5075960;28;20067;-64
2022/03/26 07:53:39;;;;;;;35.53;17.02;;;;;;;-147.05;100.00;58721.66;5094757;28;20128;-65
2022/03/26 07:56:07;;;;;;;34.50;17.67;;;;;;;-147.05;100.00;58721.66;5092492;28;20044;-64
2022/03/26 07:58:35;;;;;;;34.47;17.08;;;;;;;-147.05;100.00;58721.66;5082393;28;20102;-65
2022/03/26 08:01:02;;;;;;;40.05;17.83;;;;;;;-147.05;100.00;58721.66;5088961;28;20123;-65
2022/03/26 08:03:29;;;;;;;31.58;16.38;;;;;;;-147.05;100.00;58721.66;5094918;28;20154;-65
2022/03/26 08:06:00;;;;;;;34.40;17.40;;;;;;;-147.05;100.00;58721.66;5103296;28;20040;-65
2022/03/26 08:08:33;;;;;;;35.53;17.20;;;;;;;-147.05;100.00;58721.66;5095521;28;20041;-67
2022/03/26 08:11:00;;;;;;;32.95;16.10;;;;;;;-147.05;100.00;58721.66;5095859;28;20835;-66
2022/03/26 08:13:28;;;;;;;33.42;16.20;;;;;;;-147.05;100.00;58721.66;5080666;28;20129;-68
2022/03/26 08:15:55;;;;;;;35.25;16.70;;;;;;;-147.05;100.00;58721.66;5074785;28;20113;-66
2022/03/26 08:18:22;;;;;;;36.58;17.00;;;;;;;-147.05;100.00;58721.66;5075662;28;20045;-67
2022/03/26 08:20:49;;;;;;;35.28;15.75;;;;;;;-147.05;100.00;58721.66;5074975;28;20037;-65
2022/03/26 08:23:16;;;;;;;32.53;16.27;;;;;;;-147.05;100.00;58721.66;5084656;28;20040;-66
2022/03/26 08:28:29;;;;;;;33.30;15.20;;;;;;;-147.05;100.00;58721.66;5093119;28;20518;-66
2022/03/26 08:30:56;;;;;;;30.98;15.85;;;;;;;-147.05;100.00;58721.66;5086486;28;20056;-66
2022/03/26 08:33:23;;;;;;;34.38;15.68;;;;;;;-147.05;100.00;58721.66;5075836;28;20037;-66
2022/03/26 08:35:50;;;;;;;30.98;15.05;;;;;;;-147.05;100.00;58721.66;5090152;28;20037;-66
2022/03/26 08:38:17;;;;;;;33.67;15.75;;;;;;;-147.05;100.00;58721.66;5081394;28;20545;-66
2022/03/26 08:40:48;;;;;;;27.27;14.65;;;;;;;-147.05;100.00;58721.66;5075617;28;20041;-66
2022/03/26 08:43:15;;;;;;;33.08;15.30;;;;;;;-147.05;100.00;58721.66;5088027;28;20045;-67
2022/03/26 08:45:42;;;;;;;32.35;14.32;;;;;;;-147.05;100.00;58721.66;5094410;28;20048;-67
2022/03/26 08:48:09;;;;;;;32.75;14.95;;;;;;;-147.05;100.00;58721.66;5078592;28;20037;-67
2022/03/26 08:50:37;;;;;;;31.25;14.52;;;;;;;-147.05;100.00;58721.66;5074740;28;21077;-67
2022/03/26 08:53:06;;;;;;;31.10;15.70;;;;;;;-147.05;100.00;58721.66;5083590;28;20084;-67
2022/03/26 08:55:33;;;;;;;29.63;14.88;;;;;;;-147.05;100.00;58721.66;5093254;28;20163;-67
2022/03/26 08:58:00;;;;;;;32.33;13.45;;;;;;;-147.05;100.00;58721.66;5096263;28;20039;-67
2022/03/26 09:00:28;;;;;;;27.20;13.10;;;;;;;-147.05;100.00;58721.66;5094964;28;20151;-65
2022/03/26 09:02:56;;;;;;;29.02;13.02;;;;;;;-147.05;100.00;58721.66;5097909;28;20040;-65
2022/03/26 09:05:24;;;;;;;26.77;12.95;;;;;;;-147.05;100.00;58721.66;5097793;28;20141;-66
2022/03/26 09:07:55;;;;;;;29.08;14.00;;;;;;;-147.05;100.00;58721.66;5080358;28;20048;-66
2022/03/26 09:10:23;;;;;;;28.88;12.45;;;;;;;-147.05;100.00;58721.66;5081930;28;20048;-66
2022/03/26 09:12:50;;;;;;;28.83;13.48;;;;;;;-147.05;100.00;58721.66;5082690;28;20041;-65
2022/03/26 09:15:17;;;;;;;25.73;12.60;;;;;;;-147.05;100.00;58721.66;5084330;28;20033;-66
2022/03/26 09:17:44;;;;;;;31.35;13.38;;;;;;;-147.05;100.00;58721.66;5096282;28;20041;-66
2022/03/26 09:20:13;;;;;;;24.98;11.95;;;;;;;-147.05;100.00;58721.66;5097663;28;20037;-66
2022/03/26 09:22:40;;;;;;;26.48;12.75;;;;;;;-147.05;100.00;58721.66;5087634;28;20044;-68
2022/03/26 09:25:08;;;;;;;27.55;11.90;;;;;;;-147.05;100.00;58721.66;5079699;28;20037;-66
2022/03/26 09:27:36;;;;;;;21.02;11.23;;;;;;;-147.05;100.00;58721.66;5096477;28;20044;-66
2022/03/26 09:30:04;;;;;;;25.27;12.82;;;;;;;-147.05;100.00;58721.66;5096832;28;20044;-66
2022/03/26 09:34:33;;;;;;;27.20;13.70;;;;;;;15.46;40.24;103144.19;5090173;27;1241089;-66
2022/03/26 09:37:03;;;;;;;23.50;12.10;;;;;;;15.50;39.72;103149.44;5147013;27;20036;-66
2022/03/26 09:39:30;;;;;;;27.55;12.25;;;;;;;15.63;39.33;103147.47;5123051;27;20088;-65
2022/03/26 09:41:58;;;;;;;28.52;13.38;;;;;;;15.76;39.45;103144.66;5124882;27;20467;-65
2022/03/26 09:44:26;;;;;;;30.77;13.02;;;;;;;15.88;38.51;103146.25;5129609;27;20566;-66
2022/03/26 09:46:53;;;;;;;30.10;14.00;;;;;;;15.93;38.45;103155.03;5146619;27;20043;-67
2022/03/26 09:49:22;;;;;;;35.25;15.25;;;;;;;16.03;37.84;103150.44;5146726;27;20028;-66
2022/03/26 09:51:54;;;;;;;31.50;13.73;;;;;;;16.09;38.39;103153.88;5140879;27;20032;-66
2022/03/26 09:54:22;;;;;;;24.95;12.68;;;;;;;16.12;39.04;103144.97;5135875;27;20046;-67
2022/03/26 09:56:50;;;;;;;33.47;13.65;;;;;;;16.11;38.92;103140.53;5143627;27;20046;-67
2022/03/26 09:59:22;;;;;;;29.67;14.73;;;;;;;16.21;39.57;103143.94;5135058;27;20035;-66
2022/03/26 10:01:50;;;;;;;34.40;15.10;;;;;;;16.32;39.96;103147.28;5144432;27;20040;-67
2022/03/26 10:04:21;;;;;;;37.90;18.20;;;;;;;16.46;39.72;103150.56;5146313;27;20036;-67
2022/03/26 10:06:54;;;;;;;32.10;17.25;;;;;;;16.50;40.55;103139.88;5144376;27;20036;-66
2022/03/26 10:09:47;;;;;;;29.65;15.60;;;;;;;16.60;40.73;103138.78;5126245;27;20498;-68
2022/03/26 10:12:21;;;;;;;25.55;12.73;;;;;;;16.62;40.43;103136.97;5127834;27;20043;-67
2022/03/26 10:14:50;;;;;;;;;;;;;;;16.61;41.08;103132.56;5138404;27;20180;-67
2022/03/26 10:17:25;;;;;;;21.00;10.52;;;;;;;16.57;41.08;103137.06;5128687;27;19927;-66
2022/03/26 10:19:56;;;;;;;20.88;9.90;;;;;;;16.65;41.42;103126.25;5130697;27;20039;-67
2022/03/26 10:22:35;;;;;;;19.58;9.35;;;;;;;16.80;41.36;103134.84;5149104;27;20121;-67
2022/03/26 10:25:23;;;;;;;16.67;8.40;;;;;;;16.96;41.61;103130.13;5149207;27;20044;-67
2022/03/26 10:27:56;;;;;;;16.60;9.80;;;;;;;17.02;41.53;103119.31;5140417;27;20040;-67
2022/03/26 10:33:23;;;;;;;14.55;9.73;;;;;;;17.10;40.74;103121.81;5137525;27;20052;-67
2022/03/26 10:36:00;;;;;;;20.63;10.27;;;;;;;17.13;41.27;103119.09;5132655;27;20464;-67
2022/03/26 10:38:34;;;;;;;15.98;8.77;;;;;;;17.10;41.22;103124.50;5131494;27;20087;-68
2022/03/26 10:41:07;;;;;;;13.32;8.60;;;;;;;17.22;41.32;103118.91;5134844;27;20119;-67
2022/03/26 10:43:39;;;;;;;17.25;9.55;;;;;;;17.34;40.80;103125.72;5131294;27;20161;-68
2022/03/26 10:46:07;;;;;;;19.15;10.18;;;;;;;17.41;40.69;103116.66;5130616;27;20042;-67
2022/03/26 10:48:36;;;;;;;18.80;9.07;;;;;;;17.49;40.25;103119.16;5114472;27;20051;-68
2022/03/26 10:51:15;;;;;;;15.55;9.52;;;;;;;17.52;40.39;103116.44;5123000;27;20548;-67
2022/03/26 10:53:49;;;;;;;15.20;8.77;;;;;;;17.57;40.48;103103.84;5125718;27;20050;-67
2022/03/26 10:56:17;;;;;;;16.98;10.20;;;;;;;17.57;39.70;103111.84;5125560;27;20079;-67
2022/03/26 10:58:44;;;;;;;18.35;9.80;;;;;;;17.52;39.74;103116.44;5113005;27;20036;-67
2022/03/26 11:01:12;;;;;;;15.57;9.52;;;;;;;17.48;39.95;103115.63;5122171;27;20043;-67
2022/03/26 11:03:41;;;;;;;16.02;9.43;;;;;;;17.50;39.75;103107.59;5120906;27;20040;-66
2022/03/26 11:06:10;;;;;;;13.20;8.45;;;;;;;17.60;40.13;103113.59;5115757;27;20572;-68
2022/03/26 11:08:42;;;;;;;14.30;8.65;;;;;;;17.71;39.34;103100.84;5112360;27;20040;-67
2022/03/26 11:11:11;;;;;;;13.60;7.68;;;;;;;17.80;39.11;103099.75;5110872;27;20532;-67